Granville, OH (43023)

12:32 PM EDT on September 26, 2016 (GMT -0400)
| | Change Station

Elev -9999 ft 0.00 °N, 0.00 °E | Updated

Rain
Rain
64 °F
Feels Like 64 °F
N
9
Wind Variable Wind from West
Gusts 14 mph

Today
High -- | Low -- °F
--% Chance of Precip.
Yesterday
High -- | Low -- °F
Precip. -- in
Pressure 30.00 in
Visibility 9.0 miles
Clouds Few 4100 ft
Overcast 5000 ft
Dew Point 54 °F
Humidity 71%
Rainfall --
Snow Depth Not available.
7:22 AM 7:19 PM
Waning Crescent, 18% visible
SPECI KVTA 261628Z AUTO 00000KT 9SM -RA FEW041 OVC050 18/15 A3000 RMK AO2 RAB1556 P0003 T01830150
Pressure 30.00 in
Visibility 9.0 miles
Clouds Few 4100 ft
Overcast 5000 ft
Dew Point 54 °F
Humidity 71%
Rainfall --
Snow Depth Not available.
7:22 AM 7:19 PM
Waning Crescent, 18% visible
SPECI KVTA 261628Z AUTO 00000KT 9SM -RA FEW041 OVC050 18/15 A3000 RMK AO2 RAB1556 P0003 T01830150

10-Day Weather Forecast

Almanac

Astronomy

Sep. 26, 2016 Rise Set
Actual Time
Civil Twilight
Nautical Twilight
Astronomical Twilight
Moon
Length of Visible Light
Length of Day
Tomorrow will be .
, % of the Moon is Illuminated

Today's Extremes

State Highs State Lows

Community

WunderPhotos

Upload Photos

1,941,918 photos uploaded!

WunderBlog® & News

Nearby

Air Quality

  Air Quality AQ Index Pollutant
Not available.

Snow Depth

Station Depth Elevation

Earthquake Activity

City Distance Mag. Time & Date
Minimum magnitude displayed is 2.5.

Coastal Water Temperatures

Place Temperature

Stations

Nearby Weather Stations

Station Location Temp. Windchill Dew Point Humidity Wind Precip. Elev Updated Type
                   

Watches & Warnings

There are currently no watches in effect.